EJM2211 SPQU-SPJC
Flight info
| Callsign | EJM2211 |
|---|---|
| Flight time | N/A |
| Altitude | 34000 |
| Route | SIME1G VUPKO UT323 SCO ESEDI3 |
| Aircraft | E190/M-SD3/L |
Departure
| Time | 2026-04-21 01:14 |
|---|---|
| Airport | Rodríguez Ballón International Airport (SPQU) |
Arrival
| Time | N/A |
|---|---|
| Airport | Jorge Chávez International Airport (SPJC) |
| Time | Latitude | Longitude | Altitude | Speed | Heading |
|---|---|---|---|---|---|
| 2026-04-21 00:53 | -16.34389 | -71.56786 | 8429 ft | 0 kts | 218° |
| 2026-04-21 00:57 | -16.34388 | -71.56785 | 8430 ft | 0 kts | 219° |
| 2026-04-21 00:57 | -16.34383 | -71.56783 | 8430 ft | 1 kts | 189° |
| 2026-04-21 00:58 | -16.34377 | -71.56782 | 8431 ft | 1 kts | 168° |
| 2026-04-21 00:58 | -16.34371 | -71.56785 | 8431 ft | 0 kts | 148° |
| 2026-04-21 00:58 | -16.34366 | -71.56789 | 8431 ft | 1 kts | 116° |
| 2026-04-21 00:58 | -16.34365 | -71.56795 | 8431 ft | 0 kts | 89° |
| 2026-04-21 00:59 | -16.34365 | -71.56802 | 8430 ft | 1 kts | 91° |
| 2026-04-21 01:06 | -16.34365 | -71.56803 | 8430 ft | 0 kts | 91° |
| 2026-04-21 01:07 | -16.34365 | -71.56802 | 8430 ft | 0 kts | 91° |
| 2026-04-21 01:07 | -16.34366 | -71.56797 | 8431 ft | 1 kts | 91° |
| 2026-04-21 01:07 | -16.34366 | -71.56773 | 8432 ft | 4 kts | 91° |
| 2026-04-21 01:08 | -16.34367 | -71.56726 | 8434 ft | 7 kts | 91° |
| 2026-04-21 01:08 | -16.34355 | -71.56665 | 8437 ft | 9 kts | 81° |
| 2026-04-21 01:08 | -16.34354 | -71.56589 | 8442 ft | 11 kts | 92° |
| 2026-04-21 01:08 | -16.34359 | -71.56496 | 8446 ft | 14 kts | 94° |
| 2026-04-21 01:09 | -16.34367 | -71.56384 | 8453 ft | 16 kts | 94° |
| 2026-04-21 01:09 | -16.34373 | -71.56261 | 8459 ft | 18 kts | 93° |
| 2026-04-21 01:09 | -16.34380 | -71.56119 | 8467 ft | 20 kts | 91° |
| 2026-04-21 01:09 | -16.34328 | -71.55991 | 8480 ft | 18 kts | 56° |
| 2026-04-21 01:10 | -16.34258 | -71.55886 | 8492 ft | 17 kts | 56° |
| 2026-04-21 01:10 | -16.34197 | -71.55777 | 8502 ft | 17 kts | 62° |
| 2026-04-21 01:10 | -16.34146 | -71.55711 | 8508 ft | 0 kts | 27° |
| 2026-04-21 01:10 | -16.34139 | -71.55708 | 8509 ft | 1 kts | 11° |
| 2026-04-21 01:11 | -16.34134 | -71.55715 | 8509 ft | 2 kts | 282° |
| 2026-04-21 01:11 | -16.34131 | -71.55732 | 8508 ft | 2 kts | 281° |
| 2026-04-21 01:11 | -16.34129 | -71.55745 | 8508 ft | 3 kts | 278° |
| 2026-04-21 01:11 | -16.34128 | -71.55753 | 8508 ft | 2 kts | 276° |
| 2026-04-21 01:12 | -16.34123 | -71.55798 | 8507 ft | 10 kts | 276° |
| 2026-04-21 01:12 | -16.34123 | -71.55808 | 8507 ft | 0 kts | 270° |
| 2026-04-21 01:12 | -16.34123 | -71.55821 | 8506 ft | 5 kts | 270° |
| 2026-04-21 01:12 | -16.34123 | -71.55856 | 8505 ft | 0 kts | 273° |
| 2026-04-21 01:13 | -16.34122 | -71.55863 | 8505 ft | 0 kts | 273° |
| 2026-04-21 01:13 | -16.34108 | -71.56077 | 8498 ft | 66 kts | 274° |
| 2026-04-21 01:13 | -16.34070 | -71.56802 | 8464 ft | 130 kts | 274° |
| 2026-04-21 01:13 | -16.34018 | -71.57883 | 8569 ft | 162 kts | 272° |
| 2026-04-21 01:14 | -16.33943 | -71.59068 | 8938 ft | 169 kts | 276° |
| 2026-04-21 01:14 | -16.33869 | -71.60249 | 9505 ft | 163 kts | 284° |
| 2026-04-21 01:14 | -16.33409 | -71.61493 | 9421 ft | 192 kts | 277° |
| 2026-04-21 01:14 | -16.33748 | -71.62618 | 10571 ft | 144 kts | 250° |
| 2026-04-21 01:15 | -16.34085 | -71.63732 | 10107 ft | 207 kts | 247° |
| 2026-04-21 01:15 | -16.34793 | -71.65101 | 10523 ft | 209 kts | 238° |
| 2026-04-21 01:15 | -16.35632 | -71.66275 | 11140 ft | 205 kts | 230° |
| 2026-04-21 01:15 | -16.36479 | -71.67482 | 11501 ft | 211 kts | 254° |
| 2026-04-21 01:16 | -16.36397 | -71.68983 | 11828 ft | 217 kts | 292° |
| 2026-04-21 01:16 | -16.35744 | -71.70431 | 12267 ft | 221 kts | 290° |
| 2026-04-21 01:16 | -16.35321 | -71.71962 | 12693 ft | 223 kts | 280° |
| 2026-04-21 01:16 | -16.35124 | -71.73560 | 13113 ft | 224 kts | 274° |
| 2026-04-21 01:17 | -16.35055 | -71.75180 | 13527 ft | 226 kts | 270° |
| 2026-04-21 01:17 | -16.35062 | -71.76813 | 13917 ft | 227 kts | 269° |
| 2026-04-21 01:17 | -16.35111 | -71.78450 | 14294 ft | 229 kts | 268° |
| 2026-04-21 01:17 | -16.35184 | -71.80116 | 14657 ft | 230 kts | 267° |
| 2026-04-21 01:18 | -16.35268 | -71.81772 | 14995 ft | 232 kts | 266° |
| 2026-04-21 01:18 | -16.35362 | -71.83453 | 15317 ft | 233 kts | 266° |
| 2026-04-21 01:18 | -16.35459 | -71.85151 | 15624 ft | 235 kts | 266° |
| 2026-04-21 01:18 | -16.35557 | -71.86835 | 15932 ft | 237 kts | 266° |
| 2026-04-21 01:19 | -16.35659 | -71.88557 | 16236 ft | 239 kts | 266° |
| 2026-04-21 01:19 | -16.35761 | -71.90282 | 16534 ft | 241 kts | 266° |
| 2026-04-21 01:19 | -16.35864 | -71.92027 | 16839 ft | 243 kts | 266° |
| 2026-04-21 01:19 | -16.35968 | -71.93778 | 17147 ft | 245 kts | 266° |
| 2026-04-21 01:20 | -16.36073 | -71.95550 | 17462 ft | 246 kts | 266° |
| 2026-04-21 01:20 | -16.36178 | -71.97331 | 17778 ft | 248 kts | 266° |
| 2026-04-21 01:20 | -16.36284 | -71.99117 | 18102 ft | 249 kts | 266° |
| 2026-04-21 01:20 | -16.36391 | -72.00938 | 18439 ft | 251 kts | 265° |
| 2026-04-21 01:21 | -16.36497 | -72.02740 | 18773 ft | 252 kts | 265° |
| 2026-04-21 01:21 | -16.36606 | -72.04582 | 19062 ft | 253 kts | 266° |
| 2026-04-21 01:21 | -16.36711 | -72.06378 | 19355 ft | 252 kts | 266° |
| 2026-04-21 01:21 | -16.36818 | -72.08192 | 19647 ft | 251 kts | 266° |
| 2026-04-21 01:22 | -16.36925 | -72.10018 | 19927 ft | 251 kts | 266° |
| 2026-04-21 01:22 | -16.37030 | -72.11817 | 20186 ft | 251 kts | 266° |
| 2026-04-21 01:22 | -16.37088 | -72.13641 | 20433 ft | 251 kts | 273° |
| 2026-04-21 01:22 | -16.36943 | -72.15437 | 20675 ft | 251 kts | 275° |
| 2026-04-21 01:23 | -16.36788 | -72.17244 | 20917 ft | 251 kts | 275° |
| 2026-04-21 01:23 | -16.36634 | -72.19054 | 21148 ft | 251 kts | 275° |
| 2026-04-21 01:23 | -16.36479 | -72.20865 | 21370 ft | 251 kts | 275° |
| 2026-04-21 01:23 | -16.36324 | -72.22681 | 21586 ft | 252 kts | 275° |
| 2026-04-21 01:24 | -16.36170 | -72.24487 | 21795 ft | 252 kts | 275° |
| 2026-04-21 01:24 | -16.36016 | -72.26286 | 21992 ft | 252 kts | 275° |
| 2026-04-21 01:24 | -16.35859 | -72.28112 | 22184 ft | 252 kts | 275° |
| 2026-04-21 01:24 | -16.35704 | -72.29923 | 22369 ft | 253 kts | 275° |
| 2026-04-21 01:25 | -16.35549 | -72.31732 | 22550 ft | 253 kts | 275° |
| 2026-04-21 01:25 | -16.35392 | -72.33561 | 22755 ft | 253 kts | 275° |
| 2026-04-21 01:25 | -16.35236 | -72.35372 | 22953 ft | 253 kts | 275° |
| 2026-04-21 01:25 | -16.35079 | -72.37195 | 23142 ft | 252 kts | 275° |
| 2026-04-21 01:26 | -16.34923 | -72.39002 | 23312 ft | 251 kts | 275° |
| 2026-04-21 01:26 | -16.34767 | -72.40817 | 23464 ft | 251 kts | 275° |
| 2026-04-21 01:26 | -16.34611 | -72.42622 | 23632 ft | 251 kts | 275° |
| 2026-04-21 01:26 | -16.34454 | -72.44439 | 23800 ft | 252 kts | 275° |
| 2026-04-21 01:27 | -16.34297 | -72.46246 | 23963 ft | 253 kts | 275° |
| 2026-04-21 01:27 | -16.34138 | -72.48080 | 24119 ft | 254 kts | 275° |
| 2026-04-21 01:27 | -16.33981 | -72.49902 | 24277 ft | 254 kts | 275° |
| 2026-04-21 01:27 | -16.33554 | -72.51666 | 24390 ft | 255 kts | 299° |
| 2026-04-21 01:28 | -16.32552 | -72.53210 | 24544 ft | 256 kts | 303° |
| 2026-04-21 01:28 | -16.31530 | -72.54713 | 24682 ft | 257 kts | 304° |
| 2026-04-21 01:28 | -16.30473 | -72.56260 | 24695 ft | 271 kts | 304° |
| 2026-04-21 01:28 | -16.29349 | -72.57902 | 25031 ft | 279 kts | 304° |
| 2026-04-21 01:29 | -16.28244 | -72.59512 | 25593 ft | 274 kts | 304° |
| 2026-04-21 01:29 | -16.27154 | -72.61101 | 26184 ft | 268 kts | 304° |
| 2026-04-21 01:29 | -16.26088 | -72.62653 | 26678 ft | 266 kts | 304° |
| 2026-04-21 01:29 | -16.25003 | -72.64234 | 27099 ft | 267 kts | 304° |
| 2026-04-21 01:30 | -16.23929 | -72.65797 | 27474 ft | 270 kts | 304° |
| 2026-04-21 01:30 | -16.22838 | -72.67386 | 27918 ft | 272 kts | 304° |
| 2026-04-21 01:30 | -16.21719 | -72.69014 | 28387 ft | 275 kts | 304° |
| 2026-04-21 01:30 | -16.20610 | -72.70627 | 28856 ft | 277 kts | 304° |
| 2026-04-21 01:31 | -16.19488 | -72.72259 | 29329 ft | 278 kts | 304° |
| 2026-04-21 01:31 | -16.18362 | -72.73897 | 29781 ft | 280 kts | 304° |
| 2026-04-21 01:31 | -16.17239 | -72.75530 | 30219 ft | 281 kts | 304° |
| 2026-04-21 01:31 | -16.16092 | -72.77196 | 30657 ft | 283 kts | 304° |
| 2026-04-21 01:32 | -16.14939 | -72.78873 | 31090 ft | 285 kts | 304° |
| 2026-04-21 01:32 | -16.13792 | -72.80539 | 31515 ft | 287 kts | 304° |
| 2026-04-21 01:32 | -16.12619 | -72.82243 | 31940 ft | 289 kts | 305° |
| 2026-04-21 01:32 | -16.11451 | -72.83939 | 32357 ft | 291 kts | 305° |
| 2026-04-21 01:33 | -16.10267 | -72.85658 | 32775 ft | 293 kts | 305° |
| 2026-04-21 01:33 | -16.09073 | -72.87390 | 33180 ft | 295 kts | 305° |
| 2026-04-21 01:33 | -16.07871 | -72.89135 | 33585 ft | 297 kts | 305° |
| 2026-04-21 01:33 | -16.06660 | -72.90893 | 33988 ft | 299 kts | 305° |
| 2026-04-21 01:34 | -16.05448 | -72.92651 | 34381 ft | 299 kts | 305° |
| 2026-04-21 01:34 | -16.04249 | -72.94389 | 34508 ft | 296 kts | 306° |
| 2026-04-21 01:34 | -16.03043 | -72.96138 | 34562 ft | 298 kts | 306° |
| 2026-04-21 01:34 | -16.01827 | -72.97900 | 34587 ft | 299 kts | 306° |
| 2026-04-21 01:35 | -16.00607 | -72.99667 | 34603 ft | 298 kts | 306° |
| 2026-04-21 01:35 | -15.99407 | -73.01405 | 34537 ft | 295 kts | 306° |
| 2026-04-21 01:35 | -15.98209 | -73.03140 | 34520 ft | 295 kts | 306° |
| 2026-04-21 01:35 | -15.97011 | -73.04874 | 34503 ft | 296 kts | 306° |
| 2026-04-21 01:36 | -15.95813 | -73.06609 | 34489 ft | 297 kts | 306° |
| 2026-04-21 01:36 | -15.94598 | -73.08367 | 34478 ft | 298 kts | 306° |
| 2026-04-21 01:36 | -15.93386 | -73.10121 | 34460 ft | 299 kts | 306° |
| 2026-04-21 01:36 | -15.92180 | -73.11865 | 34444 ft | 300 kts | 306° |
| 2026-04-21 01:37 | -15.90964 | -73.13624 | 34430 ft | 300 kts | 306° |
| 2026-04-21 01:37 | -15.89737 | -73.15398 | 34423 ft | 301 kts | 306° |
| 2026-04-21 01:37 | -15.87289 | -73.18936 | 34418 ft | 300 kts | 306° |
| 2026-04-21 01:38 | -15.86080 | -73.20682 | 34415 ft | 300 kts | 306° |
| 2026-04-21 01:38 | -15.84850 | -73.22459 | 34416 ft | 301 kts | 306° |
| 2026-04-21 01:38 | -15.82400 | -73.25997 | 34417 ft | 301 kts | 306° |
| 2026-04-21 01:39 | -15.79954 | -73.29528 | 34430 ft | 301 kts | 306° |
| 2026-04-21 01:39 | -15.77521 | -73.33036 | 34449 ft | 301 kts | 306° |
| 2026-04-21 01:40 | -15.75063 | -73.36581 | 34474 ft | 301 kts | 306° |
| 2026-04-21 01:40 | -15.72620 | -73.40102 | 34499 ft | 301 kts | 307° |
| 2026-04-21 01:41 | -15.70181 | -73.43616 | 34528 ft | 301 kts | 307° |
| 2026-04-21 01:41 | -15.68954 | -73.45383 | 34545 ft | 300 kts | 307° |
| 2026-04-21 01:41 | -15.67728 | -73.47147 | 34564 ft | 300 kts | 307° |
| 2026-04-21 01:42 | -15.66517 | -73.48891 | 34584 ft | 300 kts | 307° |
| 2026-04-21 01:42 | -15.65293 | -73.50652 | 34607 ft | 300 kts | 307° |
| 2026-04-21 01:42 | -15.64058 | -73.52428 | 34616 ft | 300 kts | 307° |
| 2026-04-21 01:42 | -15.62835 | -73.54187 | 34611 ft | 300 kts | 307° |
| 2026-04-21 01:43 | -15.61610 | -73.55950 | 34606 ft | 300 kts | 307° |
| 2026-04-21 01:43 | -15.60388 | -73.57706 | 34600 ft | 300 kts | 307° |
| 2026-04-21 01:43 | -15.59164 | -73.59466 | 34599 ft | 300 kts | 307° |
| 2026-04-21 01:43 | -15.57941 | -73.61222 | 34600 ft | 300 kts | 307° |
| 2026-04-21 01:44 | -15.56723 | -73.62972 | 34603 ft | 300 kts | 307° |
| 2026-04-21 01:44 | -15.55502 | -73.64726 | 34602 ft | 300 kts | 307° |
| 2026-04-21 01:44 | -15.54287 | -73.66470 | 34597 ft | 300 kts | 307° |
| 2026-04-21 01:44 | -15.53044 | -73.68255 | 34589 ft | 300 kts | 307° |
| 2026-04-21 01:45 | -15.51831 | -73.69996 | 34578 ft | 300 kts | 307° |
| 2026-04-21 01:45 | -15.50595 | -73.71770 | 34568 ft | 300 kts | 307° |
| 2026-04-21 01:45 | -15.49375 | -73.73521 | 34557 ft | 300 kts | 307° |
| 2026-04-21 01:45 | -15.48148 | -73.75281 | 34552 ft | 300 kts | 307° |
| 2026-04-21 01:46 | -15.46927 | -73.77032 | 34554 ft | 300 kts | 307° |
| 2026-04-21 01:46 | -15.45706 | -73.78781 | 34560 ft | 300 kts | 307° |
| 2026-04-21 01:46 | -15.44490 | -73.80524 | 34566 ft | 300 kts | 307° |
| 2026-04-21 01:46 | -15.43267 | -73.82276 | 34572 ft | 300 kts | 307° |
| 2026-04-21 01:47 | -15.42028 | -73.84052 | 34579 ft | 300 kts | 307° |
| 2026-04-21 01:47 | -15.40809 | -73.85798 | 34588 ft | 300 kts | 307° |
| 2026-04-21 01:47 | -15.39580 | -73.87558 | 34594 ft | 300 kts | 307° |
| 2026-04-21 01:47 | -15.38367 | -73.89295 | 34584 ft | 301 kts | 307° |
| 2026-04-21 01:48 | -15.37136 | -73.91056 | 34567 ft | 300 kts | 307° |
| 2026-04-21 01:48 | -15.35895 | -73.92832 | 34547 ft | 300 kts | 307° |
| 2026-04-21 01:48 | -15.33452 | -73.96326 | 34510 ft | 301 kts | 307° |
| 2026-04-21 01:49 | -15.30980 | -73.99861 | 34468 ft | 301 kts | 307° |
| 2026-04-21 01:49 | -15.29753 | -74.01616 | 34468 ft | 300 kts | 307° |
| 2026-04-21 01:49 | -15.28524 | -74.03372 | 34511 ft | 300 kts | 307° |
| 2026-04-21 01:50 | -15.26070 | -74.06878 | 34564 ft | 302 kts | 307° |
| 2026-04-21 01:50 | -15.23607 | -74.10394 | 34531 ft | 300 kts | 307° |
| 2026-04-21 01:51 | -15.22383 | -74.12141 | 34513 ft | 299 kts | 307° |
| 2026-04-21 01:51 | -15.21152 | -74.13898 | 34420 ft | 301 kts | 307° |
| 2026-04-21 01:51 | -15.19922 | -74.15653 | 34266 ft | 302 kts | 307° |
| 2026-04-21 01:51 | -15.18684 | -74.17419 | 34084 ft | 302 kts | 307° |
| 2026-04-21 01:52 | -15.17446 | -74.19185 | 33863 ft | 302 kts | 307° |
| 2026-04-21 01:52 | -15.15007 | -74.22661 | 33608 ft | 299 kts | 307° |
| 2026-04-21 01:53 | -15.12543 | -74.26172 | 33440 ft | 303 kts | 307° |
| 2026-04-21 01:53 | -15.10058 | -74.29711 | 33270 ft | 303 kts | 307° |
| 2026-04-21 01:54 | -15.07535 | -74.33304 | 33136 ft | 319 kts | 307° |
| 2026-04-21 01:54 | -15.06207 | -74.35194 | 33083 ft | 334 kts | 307° |
| 2026-04-21 01:54 | -15.04808 | -74.37182 | 33031 ft | 348 kts | 307° |
| 2026-04-21 01:54 | -15.03346 | -74.39260 | 32980 ft | 363 kts | 307° |
| 2026-04-21 01:55 | -15.01831 | -74.41415 | 32934 ft | 377 kts | 307° |
| 2026-04-21 01:55 | -15.00267 | -74.43637 | 32919 ft | 390 kts | 307° |
| 2026-04-21 01:55 | -14.98634 | -74.45956 | 32918 ft | 402 kts | 307° |
| 2026-04-21 01:55 | -14.96971 | -74.48319 | 32916 ft | 413 kts | 307° |
| 2026-04-21 01:56 | -14.95252 | -74.50759 | 32914 ft | 425 kts | 307° |
| 2026-04-21 01:56 | -14.91692 | -74.55811 | 32916 ft | 446 kts | 306° |
| 2026-04-21 01:57 | -14.87943 | -74.61128 | 32923 ft | 460 kts | 306° |
| 2026-04-21 01:57 | -14.84201 | -74.66431 | 32929 ft | 454 kts | 307° |
| 2026-04-21 01:58 | -14.80471 | -74.71712 | 32956 ft | 455 kts | 307° |
| 2026-04-21 01:58 | -14.76749 | -74.76980 | 32996 ft | 454 kts | 307° |
| 2026-04-21 01:59 | -14.73005 | -74.82275 | 33185 ft | 454 kts | 307° |
| 2026-04-21 01:59 | -14.71151 | -74.84896 | 33380 ft | 454 kts | 307° |
| 2026-04-21 01:59 | -14.69293 | -74.87521 | 33536 ft | 454 kts | 307° |
| 2026-04-21 01:59 | -14.67432 | -74.90151 | 33655 ft | 453 kts | 307° |
| 2026-04-21 02:00 | -14.65574 | -74.92775 | 33748 ft | 453 kts | 307° |
| 2026-04-21 02:00 | -14.61853 | -74.98026 | 33856 ft | 451 kts | 307° |
| 2026-04-21 02:01 | -14.58141 | -75.03262 | 33868 ft | 449 kts | 307° |
| 2026-04-21 02:01 | -14.54449 | -75.08467 | 33899 ft | 450 kts | 307° |
| 2026-04-21 02:02 | -14.50768 | -75.13653 | 33987 ft | 450 kts | 307° |
| 2026-04-21 02:02 | -14.47061 | -75.18871 | 34056 ft | 450 kts | 307° |
| 2026-04-21 02:03 | -14.43342 | -75.24104 | 34047 ft | 449 kts | 307° |
| 2026-04-21 02:03 | -14.39657 | -75.29285 | 33980 ft | 449 kts | 307° |
| 2026-04-21 02:04 | -14.35971 | -75.34464 | 33933 ft | 449 kts | 307° |
| 2026-04-21 02:04 | -14.32276 | -75.39653 | 33947 ft | 449 kts | 307° |
| 2026-04-21 02:05 | -14.28557 | -75.44873 | 34026 ft | 450 kts | 307° |
| 2026-04-21 02:05 | -14.24847 | -75.50076 | 34043 ft | 450 kts | 307° |
| 2026-04-21 02:06 | -14.21140 | -75.55271 | 34031 ft | 450 kts | 307° |
| 2026-04-21 02:06 | -14.17432 | -75.60465 | 33893 ft | 450 kts | 307° |
| 2026-04-21 02:07 | -14.13731 | -75.65646 | 33775 ft | 449 kts | 307° |
| 2026-04-21 02:07 | -14.10017 | -75.70840 | 33867 ft | 450 kts | 307° |
| 2026-04-21 02:08 | -14.06292 | -75.76049 | 33978 ft | 450 kts | 307° |
| 2026-04-21 02:08 | -14.02583 | -75.81231 | 33991 ft | 450 kts | 307° |
| 2026-04-21 02:09 | -13.98858 | -75.86433 | 33971 ft | 450 kts | 307° |
| 2026-04-21 02:09 | -13.95141 | -75.91619 | 33931 ft | 450 kts | 307° |
| 2026-04-21 02:10 | -13.91436 | -75.96786 | 33911 ft | 450 kts | 307° |
| 2026-04-21 02:10 | -13.87736 | -76.01943 | 33925 ft | 450 kts | 307° |
| 2026-04-21 02:11 | -13.83999 | -76.07149 | 33952 ft | 450 kts | 307° |
| 2026-04-21 02:11 | -13.80291 | -76.12310 | 33956 ft | 450 kts | 307° |
| 2026-04-21 02:12 | -13.76574 | -76.17481 | 33957 ft | 450 kts | 307° |
| 2026-04-21 02:12 | -13.72318 | -76.22145 | 33969 ft | 448 kts | 323° |
| 2026-04-21 02:13 | -13.67061 | -76.25616 | 33969 ft | 448 kts | 328° |
| 2026-04-21 02:13 | -13.61781 | -76.28989 | 33968 ft | 448 kts | 328° |
| 2026-04-21 02:14 | -13.56500 | -76.32364 | 33968 ft | 449 kts | 328° |
| 2026-04-21 02:14 | -13.51171 | -76.35768 | 33963 ft | 446 kts | 328° |
| 2026-04-21 02:14 | -13.48572 | -76.37427 | 33956 ft | 433 kts | 328° |
| 2026-04-21 02:15 | -13.46020 | -76.39056 | 33961 ft | 431 kts | 328° |
| 2026-04-21 02:15 | -13.41036 | -76.42236 | 33543 ft | 411 kts | 328° |
| 2026-04-21 02:15 | -13.38640 | -76.43765 | 33099 ft | 402 kts | 328° |
| 2026-04-21 02:16 | -13.36285 | -76.45267 | 32610 ft | 394 kts | 328° |
| 2026-04-21 02:16 | -13.33966 | -76.46745 | 32035 ft | 386 kts | 328° |
| 2026-04-21 02:16 | -13.31705 | -76.48186 | 31457 ft | 380 kts | 328° |
| 2026-04-21 02:16 | -13.29475 | -76.49607 | 30873 ft | 374 kts | 328° |
| 2026-04-21 02:17 | -13.27290 | -76.51000 | 30266 ft | 369 kts | 328° |
| 2026-04-21 02:17 | -13.25121 | -76.52381 | 29600 ft | 365 kts | 328° |
| 2026-04-21 02:17 | -13.22981 | -76.53744 | 28937 ft | 360 kts | 328° |
| 2026-04-21 02:17 | -13.20862 | -76.55093 | 28303 ft | 356 kts | 327° |
| 2026-04-21 02:18 | -13.18763 | -76.56429 | 27684 ft | 353 kts | 327° |
| 2026-04-21 02:18 | -13.16707 | -76.57738 | 27080 ft | 349 kts | 327° |
| 2026-04-21 02:18 | -13.14653 | -76.59045 | 26476 ft | 346 kts | 327° |
| 2026-04-21 02:18 | -13.12616 | -76.60341 | 25877 ft | 343 kts | 327° |
| 2026-04-21 02:19 | -13.10601 | -76.61623 | 25283 ft | 339 kts | 327° |
| 2026-04-21 02:19 | -13.08596 | -76.62897 | 24698 ft | 336 kts | 327° |
| 2026-04-21 02:19 | -13.06622 | -76.64153 | 24120 ft | 333 kts | 327° |
| 2026-04-21 02:19 | -13.04655 | -76.65403 | 23551 ft | 331 kts | 327° |
| 2026-04-21 02:20 | -13.02716 | -76.66635 | 22992 ft | 328 kts | 327° |
| 2026-04-21 02:20 | -13.00793 | -76.67858 | 22440 ft | 325 kts | 327° |
| 2026-04-21 02:20 | -12.98870 | -76.69080 | 21887 ft | 323 kts | 327° |
| 2026-04-21 02:20 | -12.96986 | -76.70276 | 21346 ft | 320 kts | 327° |
| 2026-04-21 02:21 | -12.95075 | -76.71490 | 20805 ft | 318 kts | 327° |
| 2026-04-21 02:21 | -12.93206 | -76.72677 | 20294 ft | 316 kts | 327° |
| 2026-04-21 02:21 | -12.91369 | -76.73843 | 19792 ft | 313 kts | 327° |
| 2026-04-21 02:21 | -12.89502 | -76.75028 | 19280 ft | 311 kts | 327° |
| 2026-04-21 02:22 | -12.87670 | -76.76191 | 18778 ft | 309 kts | 328° |
| 2026-04-21 02:22 | -12.85869 | -76.77334 | 18284 ft | 307 kts | 328° |
| 2026-04-21 02:22 | -12.84056 | -76.78484 | 17786 ft | 304 kts | 328° |
| 2026-04-21 02:22 | -12.82251 | -76.79629 | 17289 ft | 302 kts | 328° |
| 2026-04-21 02:23 | -12.80490 | -76.80746 | 16801 ft | 300 kts | 328° |
| 2026-04-21 02:23 | -12.78711 | -76.81874 | 16308 ft | 298 kts | 328° |
| 2026-04-21 02:23 | -12.76953 | -76.82988 | 15822 ft | 295 kts | 328° |
| 2026-04-21 02:23 | -12.75224 | -76.84084 | 15342 ft | 293 kts | 328° |
| 2026-04-21 02:24 | -12.73489 | -76.85184 | 14857 ft | 291 kts | 328° |
| 2026-04-21 02:24 | -12.71768 | -76.86275 | 14377 ft | 289 kts | 328° |
| 2026-04-21 02:24 | -12.70061 | -76.87357 | 13898 ft | 287 kts | 328° |
| 2026-04-21 02:24 | -12.68377 | -76.88423 | 13423 ft | 285 kts | 328° |
| 2026-04-21 02:25 | -12.66703 | -76.89484 | 12949 ft | 283 kts | 328° |
| 2026-04-21 02:25 | -12.65016 | -76.90552 | 12470 ft | 282 kts | 328° |
| 2026-04-21 02:25 | -12.63362 | -76.91600 | 12003 ft | 280 kts | 328° |
| 2026-04-21 02:25 | -12.61686 | -76.92661 | 11527 ft | 279 kts | 328° |
| 2026-04-21 02:26 | -12.60046 | -76.93699 | 11062 ft | 277 kts | 328° |
| 2026-04-21 02:26 | -12.58403 | -76.94739 | 10595 ft | 275 kts | 328° |
| 2026-04-21 02:26 | -12.56723 | -76.95667 | 10129 ft | 274 kts | 333° |
| 2026-04-21 02:26 | -12.55024 | -76.96513 | 9671 ft | 273 kts | 333° |
| 2026-04-21 02:27 | -12.53303 | -76.97370 | 9207 ft | 271 kts | 333° |
| 2026-04-21 02:27 | -12.51629 | -76.98203 | 8753 ft | 270 kts | 333° |
| 2026-04-21 02:27 | -12.49923 | -76.99052 | 8290 ft | 268 kts | 333° |
| 2026-04-21 02:27 | -12.48248 | -76.99885 | 7837 ft | 267 kts | 334° |
| 2026-04-21 02:28 | -12.46586 | -77.00712 | 7389 ft | 266 kts | 334° |
| 2026-04-21 02:28 | -12.44909 | -77.01550 | 6925 ft | 266 kts | 334° |
| 2026-04-21 02:28 | -12.43248 | -77.02372 | 6483 ft | 264 kts | 334° |
| 2026-04-21 02:28 | -12.41611 | -77.03185 | 6048 ft | 262 kts | 334° |
| 2026-04-21 02:29 | -12.39974 | -77.03999 | 5614 ft | 261 kts | 334° |
| 2026-04-21 02:29 | -12.38323 | -77.04820 | 5176 ft | 259 kts | 334° |
| 2026-04-21 02:29 | -12.36703 | -77.05624 | 4746 ft | 258 kts | 334° |
| 2026-04-21 02:29 | -12.35108 | -77.06417 | 4323 ft | 256 kts | 334° |
| 2026-04-21 02:30 | -12.33506 | -77.07213 | 3897 ft | 255 kts | 334° |
| 2026-04-21 02:30 | -12.31911 | -77.08005 | 3474 ft | 253 kts | 334° |
| 2026-04-21 02:30 | -12.30320 | -77.08794 | 3050 ft | 252 kts | 334° |
| 2026-04-21 02:30 | -12.28735 | -77.09582 | 2624 ft | 251 kts | 333° |
| 2026-04-21 02:31 | -12.27162 | -77.10363 | 2199 ft | 251 kts | 333° |
| 2026-04-21 02:31 | -12.25502 | -77.11189 | 2054 ft | 290 kts | 333° |
| 2026-04-21 02:31 | -12.23535 | -77.12164 | 2033 ft | 330 kts | 333° |
| 2026-04-21 02:31 | -12.21354 | -77.13247 | 2019 ft | 364 kts | 334° |
| 2026-04-21 02:32 | -12.18963 | -77.14433 | 2010 ft | 391 kts | 334° |
| 2026-04-21 02:32 | -12.16438 | -77.15685 | 2005 ft | 413 kts | 334° |
| 2026-04-21 02:32 | -12.13779 | -77.17004 | 2002 ft | 430 kts | 334° |
| 2026-04-21 02:32 | -12.11040 | -77.18362 | 2000 ft | 444 kts | 334° |
| 2026-04-21 02:33 | -12.08205 | -77.19768 | 1999 ft | 455 kts | 334° |
| 2026-04-21 02:33 | -12.05338 | -77.21190 | 1996 ft | 464 kts | 334° |
| 2026-04-21 02:33 | -12.02480 | -77.22607 | 1981 ft | 432 kts | 334° |
| 2026-04-21 02:33 | -11.99904 | -77.23819 | 1969 ft | 382 kts | 335° |
| 2026-04-21 02:34 | -11.97594 | -77.24873 | 1968 ft | 342 kts | 335° |
| 2026-04-21 02:34 | -11.95536 | -77.25814 | 1968 ft | 310 kts | 335° |
| 2026-04-21 02:34 | -11.93643 | -77.26678 | 1967 ft | 283 kts | 335° |
| 2026-04-21 02:34 | -11.91915 | -77.27468 | 1966 ft | 260 kts | 335° |
| 2026-04-21 02:35 | -11.90326 | -77.28193 | 1966 ft | 240 kts | 335° |
| 2026-04-21 02:35 | -11.88857 | -77.28864 | 1963 ft | 221 kts | 335° |
| 2026-04-21 02:35 | -11.87486 | -77.29490 | 1965 ft | 204 kts | 335° |
| 2026-04-21 02:35 | -11.86260 | -77.30050 | 2013 ft | 183 kts | 335° |
| 2026-04-21 02:36 | -11.85139 | -77.30562 | 1973 ft | 167 kts | 335° |
| 2026-04-21 02:36 | -11.84065 | -77.30707 | 1933 ft | 147 kts | 18° |
| 2026-04-21 02:36 | -11.83303 | -77.30180 | 1882 ft | 126 kts | 59° |
| 2026-04-21 02:36 | -11.82980 | -77.29336 | 1536 ft | 131 kts | 90° |
| 2026-04-21 02:37 | -11.82997 | -77.28430 | 1362 ft | 123 kts | 88° |
| 2026-04-21 02:37 | -11.82785 | -77.27510 | 1565 ft | 144 kts | 78° |
| 2026-04-21 02:37 | -11.82630 | -77.26530 | 2171 ft | 148 kts | 93° |
| 2026-04-21 02:37 | -11.82776 | -77.25341 | 2225 ft | 196 kts | 104° |
| 2026-04-21 02:38 | -11.82994 | -77.23881 | 2203 ft | 247 kts | 86° |
| 2026-04-21 02:38 | -11.82856 | -77.22122 | 2719 ft | 258 kts | 96° |
| 2026-04-21 02:38 | -11.83642 | -77.20484 | 2840 ft | 245 kts | 136° |
| 2026-04-21 02:38 | -11.85018 | -77.19801 | 3034 ft | 206 kts | 170° |
| 2026-04-21 02:39 | -11.86404 | -77.19666 | 2885 ft | 191 kts | 174° |
| 2026-04-21 02:39 | -11.87646 | -77.19470 | 2802 ft | 161 kts | 167° |
| 2026-04-21 02:39 | -11.88635 | -77.19167 | 2622 ft | 142 kts | 161° |
| 2026-04-21 02:39 | -11.89539 | -77.18828 | 2316 ft | 134 kts | 155° |
| 2026-04-21 02:40 | -11.90371 | -77.18416 | 1965 ft | 132 kts | 154° |
| 2026-04-21 02:40 | -11.91201 | -77.18005 | 1606 ft | 131 kts | 155° |
| 2026-04-21 02:40 | -11.92014 | -77.17605 | 1253 ft | 129 kts | 155° |
| 2026-04-21 02:40 | -11.92796 | -77.17222 | 1072 ft | 114 kts | 155° |
| 2026-04-21 02:41 | -11.93506 | -77.16876 | 1309 ft | 116 kts | 155° |
| 2026-04-21 02:41 | -11.94162 | -77.16552 | 1899 ft | 108 kts | 155° |
| 2026-04-21 02:41 | -11.95023 | -77.16132 | 1747 ft | 164 kts | 155° |
| 2026-04-21 02:41 | -11.96128 | -77.15589 | 1755 ft | 169 kts | 155° |
| 2026-04-21 02:42 | -11.97102 | -77.15112 | 1590 ft | 141 kts | 155° |
| 2026-04-21 02:42 | -11.97964 | -77.14679 | 1153 ft | 136 kts | 154° |
| 2026-04-21 02:42 | -11.98779 | -77.14256 | 786 ft | 127 kts | 154° |
| 2026-04-21 02:42 | -11.99566 | -77.13896 | 460 ft | 117 kts | 155° |
| 2026-04-21 02:43 | -12.00247 | -77.13570 | 235 ft | 104 kts | 157° |